createdAt,value
2019-03-26T00:01:04.027Z,156.83
2019-03-26T00:03:44.895Z,119.83
2019-03-26T00:06:25.858Z,145.97
2019-03-26T00:09:07.452Z,115.83
2019-03-26T00:11:48.731Z,117.87
2019-03-26T00:14:29.788Z,117.93
2019-03-26T00:17:10.378Z,126.13
2019-03-26T00:19:51.476Z,116.50
2019-03-26T00:22:32.739Z,120.70
2019-03-26T00:25:14.176Z,133.47
2019-03-26T00:27:55.448Z,126.67
2019-03-26T00:30:36.741Z,123.73
2019-03-26T00:33:17.715Z,105.70
2019-03-26T00:35:58.652Z,109.67
2019-03-26T00:38:39.580Z,108.23
2019-03-26T00:41:21.268Z,114.80
2019-03-26T00:44:02.500Z,123.87
2019-03-26T00:46:43.775Z,112.73
2019-03-26T00:49:24.256Z,127.33
2019-03-26T00:52:05.379Z,115.90
2019-03-26T00:54:46.006Z,117.17
2019-03-26T00:57:26.898Z,160.80
2019-03-26T01:00:07.428Z,155.33
2019-03-26T01:02:48.665Z,173.07
2019-03-26T01:05:29.875Z,153.47
2019-03-26T01:08:11.213Z,161.47
2019-03-26T01:10:52.595Z,146.53
2019-03-26T01:13:33.375Z,168.17
2019-03-26T01:16:14.332Z,147.33
2019-03-26T01:18:55.606Z,216.80
2019-03-26T01:21:36.583Z,200.97
2019-03-26T01:24:17.527Z,180.80
2019-03-26T01:26:58.489Z,220.27
2019-03-26T01:29:39.448Z,173.30
2019-03-26T01:32:20.459Z,165.07
2019-03-26T01:35:01.448Z,219.13
2019-03-26T01:37:42.975Z,211.03
2019-03-26T01:40:24.054Z,182.97
2019-03-26T01:43:05.851Z,192.13
2019-03-26T01:45:46.811Z,194.00
2019-03-26T01:48:27.452Z,184.43
2019-03-26T01:51:08.429Z,192.40
2019-03-26T01:53:49.609Z,202.37
2019-03-26T01:56:29.888Z,195.93
2019-03-26T01:59:10.966Z,205.80
2019-03-26T02:01:52.257Z,209.87
2019-03-26T02:04:32.669Z,206.00
2019-03-26T02:07:13.254Z,200.80
2019-03-26T02:09:54.279Z,214.30
2019-03-26T02:12:35.528Z,215.43
2019-03-26T02:15:16.740Z,210.13
2019-03-26T02:17:57.701Z,208.47
2019-03-26T02:20:39.306Z,200.57
2019-03-26T02:23:20.482Z,210.13
2019-03-26T02:26:01.873Z,216.40
2019-03-26T02:28:43.474Z,200.93
2019-03-26T02:31:24.435Z,199.00
2019-03-26T02:34:05.066Z,189.97
2019-03-26T02:36:46.106Z,178.17
2019-03-26T02:39:27.326Z,174.63
2019-03-26T02:42:08.906Z,160.73
2019-03-26T02:44:49.797Z,176.80
2019-03-26T02:47:30.458Z,160.93
2019-03-26T02:50:11.466Z,158.97
2019-03-26T02:52:52.256Z,135.40
2019-03-26T02:55:33.366Z,134.73
2019-03-26T02:58:14.680Z,115.43
2019-03-26T03:00:55.611Z,110.73
2019-03-26T03:03:37.219Z,95.83
2019-03-26T03:06:17.871Z,92.83
2019-03-26T03:08:58.607Z,87.63
2019-03-26T03:11:39.782Z,79.80
2019-03-26T03:14:20.422Z,85.57
2019-03-26T03:17:01.390Z,82.63
2019-03-26T03:19:42.362Z,83.00
2019-03-26T03:22:23.260Z,78.43
2019-03-26T03:25:03.748Z,75.93
2019-03-26T03:27:44.309Z,76.67
2019-03-26T03:30:25.867Z,73.70
2019-03-26T03:33:07.482Z,69.97
2019-03-26T03:35:52.561Z,71.20
2019-03-26T03:38:29.385Z,74.50
2019-03-26T03:41:13.655Z,63.70
2019-03-26T03:43:55.578Z,63.77
2019-03-26T03:46:36.757Z,62.53
2019-03-26T03:49:17.787Z,64.07
2019-03-26T03:52:01.103Z,58.07
2019-03-26T03:54:44.017Z,54.60
2019-03-26T03:57:26.336Z,57.00
2019-03-26T04:00:07.175Z,57.27
2019-03-26T04:02:48.602Z,55.07
2019-03-26T04:05:29.615Z,52.83
2019-03-26T04:08:11.489Z,49.97
2019-03-26T04:10:52.013Z,49.47
2019-03-26T04:13:33.743Z,46.97
2019-03-26T04:16:14.640Z,45.13
2019-03-26T04:18:55.987Z,47.77
2019-03-26T04:21:36.817Z,48.57
2019-03-26T04:24:17.867Z,46.43
2019-03-26T04:26:59.096Z,48.70
2019-03-26T04:29:39.780Z,48.17
2019-03-26T04:32:20.551Z,48.97
2019-03-26T04:35:01.716Z,48.90
2019-03-26T04:37:42.990Z,48.80
2019-03-26T04:40:24.270Z,46.50
2019-03-26T04:43:05.513Z,46.13
2019-03-26T04:45:46.597Z,39.43
2019-03-26T04:48:27.568Z,44.70
2019-03-26T04:51:08.116Z,42.07
2019-03-26T04:53:49.373Z,39.80
2019-03-26T04:56:30.442Z,40.37
2019-03-26T04:59:11.245Z,34.70
2019-03-26T05:01:52.043Z,31.83
2019-03-26T05:04:32.898Z,31.93
2019-03-26T05:07:13.541Z,33.30
2019-03-26T05:09:54.597Z,33.57
2019-03-26T05:12:35.518Z,33.03
2019-03-26T05:15:16.743Z,35.60
2019-03-26T05:17:58.126Z,34.43
2019-03-26T05:20:39.058Z,33.13
2019-03-26T05:23:19.938Z,35.10
2019-03-26T05:26:00.938Z,34.20
2019-03-26T05:28:42.090Z,33.43
2019-03-26T05:31:24.055Z,32.77
2019-03-26T05:34:04.766Z,29.97
2019-03-26T05:36:51.286Z,31.67
2019-03-26T05:39:27.243Z,34.17
2019-03-26T05:42:08.991Z,32.07
2019-03-26T05:44:50.009Z,32.67
2019-03-26T05:47:31.374Z,32.10
2019-03-26T05:50:12.513Z,29.93
2019-03-26T05:52:53.769Z,32.03
2019-03-26T05:55:35.113Z,31.77
2019-03-26T05:58:15.703Z,33.02
2019-03-26T06:00:56.766Z,32.03
2019-03-26T06:03:37.362Z,32.90
2019-03-26T06:06:19.224Z,34.90
2019-03-26T06:08:59.869Z,35.67
2019-03-26T06:11:40.488Z,35.17
2019-03-26T06:14:21.504Z,36.17
2019-03-26T06:17:02.019Z,38.25
2019-03-26T06:19:43.078Z,36.87
2019-03-26T08:17:33.504Z,25.37
2019-03-26T08:20:14.666Z,26.57
2019-03-26T08:22:55.941Z,25.12
2019-03-26T08:25:36.892Z,25.40
2019-03-26T08:28:17.937Z,25.10
2019-03-26T08:30:58.780Z,24.67
2019-03-26T08:33:39.761Z,30.30
2019-03-26T08:36:20.445Z,26.97
2019-03-26T08:39:01.063Z,25.95
2019-03-26T08:41:42.426Z,25.57
2019-03-26T08:44:23.066Z,28.30
2019-03-26T08:47:04.033Z,30.77
2019-03-26T08:49:45.286Z,27.35
2019-03-26T08:52:26.441Z,28.38
2019-03-26T08:55:07.507Z,26.27
2019-03-26T08:57:48.457Z,29.87
2019-03-26T09:00:31.901Z,27.10
2019-03-26T09:03:10.938Z,27.58
2019-03-26T09:05:51.645Z,25.85
2019-03-26T09:08:32.468Z,25.82
2019-03-26T09:11:13.868Z,29.90
2019-03-26T09:13:55.173Z,37.70
2019-03-26T09:16:36.109Z,39.85
2019-03-26T09:19:17.157Z,46.02
2019-03-26T09:21:58.842Z,45.25
2019-03-26T09:24:39.929Z,38.00
2019-03-26T09:27:20.857Z,36.90
2019-03-26T09:30:01.454Z,34.25
2019-03-26T09:32:42.499Z,37.60
2019-03-26T09:35:23.336Z,36.20
2019-03-26T11:45:41.256Z,18.73
2019-03-26T11:48:27.513Z,17.67
2019-03-26T11:51:09.581Z,17.57
2019-03-26T11:53:51.492Z,16.03
2019-03-26T11:56:33.731Z,14.83
2019-03-26T11:59:15.943Z,12.67
2019-03-26T12:02:00.025Z,12.73
2019-03-26T12:04:44.700Z,11.53
2019-03-26T12:07:26.868Z,10.30
2019-03-26T12:13:02.142Z,10.90
2019-03-26T12:15:45.349Z,10.80
2019-03-26T12:18:26.969Z,10.17
2019-03-26T12:21:10.425Z,10.23
2019-03-26T12:23:51.726Z,10.13
2019-03-26T12:26:33.657Z,10.63
2019-03-26T12:29:14.944Z,10.13
2019-03-26T12:31:56.498Z,9.77
2019-03-26T12:34:39.116Z,9.50
2019-03-26T12:37:20.872Z,9.70
2019-03-26T12:40:02.326Z,10.03
2019-03-26T12:42:43.990Z,9.73
2019-03-26T12:45:25.943Z,10.23
2019-03-26T12:48:07.786Z,9.77
2019-03-26T12:50:49.416Z,11.67
2019-03-26T12:53:31.064Z,13.00
2019-03-26T12:56:12.207Z,11.67
2019-03-26T12:58:53.081Z,11.57
2019-03-26T13:01:33.826Z,9.60
2019-03-26T13:04:16.856Z,10.13
2019-03-26T13:06:56.838Z,9.73
2019-03-26T13:09:37.719Z,10.50
2019-03-26T13:12:18.427Z,10.27
2019-03-26T13:14:59.545Z,10.53
2019-03-26T13:17:39.949Z,10.30
2019-03-26T13:20:21.478Z,9.73
2019-03-26T13:23:02.149Z,9.60
2019-03-26T13:25:43.104Z,9.33
2019-03-26T13:28:23.954Z,9.97
2019-03-26T13:31:05.044Z,9.80
2019-03-26T13:33:45.539Z,10.90
2019-03-26T13:36:26.119Z,11.10
2019-03-26T13:39:06.517Z,12.30
2019-03-26T13:41:46.703Z,11.70
2019-03-26T13:44:26.857Z,11.60
2019-03-26T13:47:07.431Z,11.77
2019-03-26T13:49:47.863Z,10.70
2019-03-26T13:52:28.129Z,10.77
2019-03-26T13:55:08.913Z,11.37
2019-03-26T13:57:49.486Z,12.23
2019-03-26T14:00:29.996Z,11.83
2019-03-26T14:03:11.002Z,12.23
2019-03-26T14:05:51.355Z,11.60
2019-03-26T14:08:32.258Z,11.90
2019-03-26T14:11:12.805Z,12.33
2019-03-26T14:13:53.479Z,11.90
2019-03-26T14:16:34.599Z,12.27
2019-03-26T14:19:14.559Z,13.30
2019-03-26T14:21:55.781Z,12.37
2019-03-26T14:24:36.819Z,13.27
2019-03-26T14:27:17.061Z,12.37
2019-03-26T14:29:57.793Z,12.47
2019-03-26T14:32:38.448Z,13.43
2019-03-26T14:35:19.530Z,13.20
2019-03-26T14:38:00.394Z,19.13
2019-03-26T14:40:53.532Z,15.87
2019-03-26T14:43:22.529Z,13.20
2019-03-26T14:46:02.903Z,20.00
2019-03-26T14:48:43.464Z,21.77
2019-03-26T14:51:24.760Z,20.93
2019-03-26T14:54:05.413Z,15.43
2019-03-26T14:56:46.077Z,14.83
2019-03-26T14:59:26.536Z,16.87
2019-03-26T15:02:06.920Z,15.43
2019-03-26T15:04:47.268Z,14.90
2019-03-26T15:07:27.577Z,15.03
2019-03-26T15:10:08.232Z,16.07
2019-03-26T15:12:48.306Z,15.60
2019-03-26T15:15:29.089Z,15.67
2019-03-26T15:18:10.080Z,16.63
2019-03-26T15:20:50.450Z,17.50
2019-03-26T15:23:31.056Z,18.03
2019-03-26T15:26:11.408Z,16.60
2019-03-26T15:28:51.724Z,17.80
2019-03-26T15:31:32.121Z,16.53
2019-03-26T15:34:12.670Z,17.20
2019-03-26T15:36:53.327Z,16.17
2019-03-26T15:39:33.982Z,16.13
2019-03-26T15:42:14.527Z,16.43
2019-03-26T15:44:55.257Z,16.80
2019-03-26T15:47:36.088Z,16.80
2019-03-26T15:50:16.912Z,16.20
2019-03-26T15:52:57.390Z,17.23
2019-03-26T15:55:37.705Z,17.13
2019-03-26T15:58:18.388Z,18.07
2019-03-26T16:00:58.898Z,16.13
2019-03-26T16:03:39.701Z,17.23
2019-03-26T16:06:20.196Z,15.83
2019-03-26T16:09:01.270Z,16.37
2019-03-26T16:11:42.302Z,16.93
2019-03-26T16:14:23.584Z,16.33
2019-03-26T16:17:04.437Z,15.67
2019-03-26T16:19:44.621Z,17.07
2019-03-26T16:22:25.588Z,16.40
2019-03-26T16:25:06.224Z,16.10
2019-03-26T16:27:46.458Z,17.07
2019-03-26T16:30:26.952Z,18.43
2019-03-26T16:33:09.897Z,19.53
2019-03-26T16:35:51.558Z,18.23
2019-03-26T16:38:31.964Z,16.90
2019-03-26T16:41:12.669Z,20.70
2019-03-26T16:43:53.312Z,18.83
2019-03-26T16:46:36.393Z,18.87
2019-03-26T16:49:15.644Z,18.57
2019-03-26T16:52:00.617Z,17.73
2019-03-26T16:54:44.286Z,17.97
2019-03-26T16:57:26.951Z,17.60
2019-03-26T17:00:11.120Z,17.77
2019-03-26T17:02:53.030Z,17.57
2019-03-26T17:05:34.188Z,18.87
2019-03-26T17:08:16.298Z,17.97
2019-03-26T17:10:58.729Z,18.50
2019-03-26T17:13:40.442Z,17.20
2019-03-26T17:16:21.661Z,18.13
2019-03-26T17:19:03.060Z,17.20
2019-03-26T17:21:44.133Z,17.93
2019-03-26T17:24:25.224Z,28.40
2019-03-26T17:27:07.142Z,18.17
2019-03-26T17:29:51.155Z,18.97
2019-03-26T17:32:32.679Z,17.70
2019-03-26T17:35:13.073Z,18.97
2019-03-26T17:37:59.582Z,25.57
2019-03-26T17:40:36.217Z,24.43
2019-03-26T17:43:16.871Z,88.63
2019-03-26T17:45:57.815Z,30.87
2019-03-26T17:48:38.475Z,21.07
2019-03-26T17:51:19.889Z,28.53
2019-03-26T17:54:00.568Z,27.53
2019-03-26T17:56:40.990Z,28.23
2019-03-26T17:59:21.655Z,38.07
2019-03-26T18:02:02.273Z,74.60
2019-03-26T18:04:43.321Z,50.10
2019-03-26T18:07:23.982Z,35.67
2019-03-26T18:10:04.067Z,23.80
2019-03-26T18:12:46.677Z,23.33
2019-03-26T18:15:26.116Z,21.23
2019-03-26T18:18:07.081Z,20.07
2019-03-26T18:20:48.128Z,20.77
2019-03-26T18:23:31.312Z,24.23
2019-03-26T18:26:13.173Z,23.63
2019-03-26T18:28:55.525Z,25.00
2019-03-26T18:31:35.470Z,26.07
2019-03-26T18:34:16.136Z,22.53
2019-03-26T18:36:56.642Z,22.73
2019-03-26T18:39:37.969Z,21.87
2019-03-26T18:42:18.235Z,21.73
2019-03-26T18:44:59.179Z,21.90
2019-03-26T18:47:41.069Z,21.87
2019-03-26T18:50:22.315Z,22.93
2019-03-26T18:53:02.781Z,21.67
2019-03-26T18:55:43.887Z,20.20
2019-03-26T18:58:24.823Z,22.43
2019-03-26T19:01:05.598Z,22.73
2019-03-26T19:03:46.567Z,23.03
2019-03-26T19:06:27.799Z,23.37
2019-03-26T19:09:08.781Z,23.50
2019-03-26T19:11:49.725Z,22.80
2019-03-26T19:14:30.353Z,21.77
2019-03-26T19:17:10.901Z,20.63
2019-03-26T19:19:51.220Z,21.73
2019-03-26T19:22:32.216Z,21.00
2019-03-26T19:25:12.866Z,20.40
2019-03-26T19:27:54.005Z,20.73
2019-03-26T19:30:35.282Z,19.73
2019-03-26T19:33:16.209Z,20.10
2019-03-26T19:35:57.344Z,19.67
2019-03-26T19:38:37.881Z,19.63
2019-03-26T19:41:18.319Z,20.10
2019-03-26T19:43:59.339Z,22.70
2019-03-26T19:46:39.907Z,25.60
2019-03-26T19:49:20.544Z,22.33
2019-03-26T19:52:00.681Z,21.40
2019-03-26T19:54:41.047Z,21.47
2019-03-26T19:57:21.200Z,21.73
2019-03-26T20:00:01.432Z,21.47
2019-03-26T20:02:41.973Z,20.80
2019-03-26T20:05:23.123Z,22.00
2019-03-26T20:08:03.684Z,21.43
2019-03-26T20:10:44.050Z,21.73
2019-03-26T20:13:25.046Z,23.80
2019-03-26T20:16:05.975Z,24.07
2019-03-26T20:18:47.257Z,23.23
2019-03-26T20:21:27.915Z,22.37
2019-03-26T20:24:08.099Z,21.97
2019-03-26T20:26:48.300Z,21.73
2019-03-26T20:29:28.940Z,22.63
2019-03-26T20:32:09.583Z,20.33
2019-03-26T20:34:49.773Z,20.80
2019-03-26T20:37:30.549Z,20.93
2019-03-26T20:40:11.747Z,21.70
2019-03-26T20:42:52.778Z,20.40
2019-03-26T20:45:33.656Z,21.87
2019-03-26T20:48:14.347Z,21.97
2019-03-26T20:50:57.014Z,21.10
2019-03-26T20:53:37.168Z,21.10
2019-03-26T20:56:17.818Z,20.20
2019-03-26T20:58:58.782Z,20.50
2019-03-26T21:01:39.247Z,20.80
2019-03-26T21:04:20.049Z,21.10
2019-03-26T21:07:01.147Z,21.97
2019-03-26T21:09:42.734Z,20.07
2019-03-26T21:12:23.575Z,20.03
2019-03-26T21:15:04.546Z,21.87
2019-03-26T21:17:45.336Z,21.70
2019-03-26T21:20:25.830Z,21.07
2019-03-26T21:23:06.773Z,22.23
2019-03-26T21:25:48.059Z,21.87
2019-03-26T21:28:29.438Z,22.77
2019-03-26T21:31:10.934Z,21.10
2019-03-26T21:33:50.958Z,21.53
2019-03-26T21:36:31.108Z,21.13
2019-03-26T21:39:11.576Z,22.43
2019-03-26T21:41:52.048Z,22.30
2019-03-26T21:44:32.858Z,22.77
2019-03-26T21:47:13.162Z,22.07
2019-03-26T21:49:54.145Z,23.23
2019-03-26T21:52:34.454Z,23.50
2019-03-26T21:55:14.899Z,22.60
2019-03-26T21:57:55.210Z,22.27
2019-03-26T22:00:35.989Z,23.00
2019-03-26T22:03:16.144Z,23.23
2019-03-26T22:05:56.489Z,24.33
2019-03-26T22:08:37.130Z,23.70
2019-03-26T22:11:18.202Z,23.90
2019-03-26T22:13:58.929Z,25.07
2019-03-26T22:16:39.567Z,23.53
2019-03-26T22:19:28.615Z,24.07
2019-03-26T22:22:02.077Z,23.57
2019-03-26T22:24:42.769Z,24.20
2019-03-26T22:27:23.729Z,24.53
2019-03-26T22:30:04.696Z,23.23
2019-03-26T22:32:45.972Z,23.17
2019-03-26T22:35:27.579Z,23.10
2019-03-26T22:38:09.368Z,23.80
2019-03-26T22:40:50.770Z,26.40
2019-03-26T22:43:32.058Z,25.57
2019-03-26T22:46:12.689Z,25.47
2019-03-26T22:48:54.296Z,24.67
2019-03-26T22:51:35.097Z,24.37
2019-03-26T22:54:15.485Z,24.57
2019-03-26T22:56:56.854Z,26.73
2019-03-26T22:59:37.503Z,26.77
2019-03-26T23:02:18.459Z,27.03
2019-03-26T23:04:58.697Z,25.93
2019-03-26T23:07:39.089Z,25.73
2019-03-26T23:10:19.283Z,26.63
2019-03-26T23:12:59.224Z,29.23
2019-03-26T23:15:39.753Z,26.13
2019-03-26T23:18:19.917Z,26.40
2019-03-26T23:21:00.451Z,30.57
2019-03-26T23:23:41.660Z,32.83
2019-03-26T23:26:22.260Z,49.50
2019-03-26T23:29:02.536Z,36.40
2019-03-26T23:31:42.560Z,31.10
2019-03-26T23:34:22.978Z,32.67
2019-03-26T23:37:03.512Z,34.07
2019-03-26T23:39:43.911Z,32.23
2019-03-26T23:42:24.524Z,31.33
2019-03-26T23:45:05.842Z,29.37
2019-03-26T23:47:46.471Z,30.00
2019-03-26T23:50:26.710Z,30.17
2019-03-26T23:53:07.639Z,32.83
2019-03-26T23:55:49.036Z,34.77
2019-03-26T23:58:29.982Z,32.73
